Terminal Aerodrome Forecast
Issued by NWS

Home | Current Version | Previous Version | Text Only | Print | Product List | Glossary Off
Versions: 1 2 3 4 5 6 7 8 9 10 11 12 13 14 15

790
FTUS43 KICT 150521
TAFRSL
TAF
KRSL 150521Z 1506/1606 29008KT 1 1/2SM BR OVC008
     FM150800 34013KT P6SM SCT200
     FM152100 35009KT P6SM SKC
     FM160100 06005KT P6SM FEW250
     FM160500 15004KT P6SM SCT250=

USA.gov is the U.S. government's official web portal to all federal, state and local government web resources and services.